sensor_id;sensor_type;location;lat;lon;timestamp;pressure;altitude;pressure_sealevel;temperature;humidity
59487;BME280;45298;54.918;73.504;2023-01-25T00:00:14;101064.72;;;-10.60;82.42
59487;BME280;45298;54.918;73.504;2023-01-25T00:02:45;101086.53;;;-10.49;81.51
59487;BME280;45298;54.918;73.504;2023-01-25T00:05:14;101063.75;;;-10.64;81.40
59487;BME280;45298;54.918;73.504;2023-01-25T00:07:43;100986.97;;;-11.03;81.96
59487;BME280;45298;54.918;73.504;2023-01-25T00:10:11;101033.41;;;-10.74;81.30
59487;BME280;45298;54.918;73.504;2023-01-25T00:12:40;101015.97;;;-10.83;81.42
59487;BME280;45298;54.918;73.504;2023-01-25T00:15:09;101048.41;;;-10.63;82.40
59487;BME280;45298;54.918;73.504;2023-01-25T00:17:37;101045.72;;;-10.66;82.14
59487;BME280;45298;54.918;73.504;2023-01-25T00:20:07;101043.38;;;-10.61;82.39
59487;BME280;45298;54.918;73.504;2023-01-25T00:22:35;101053.84;;;-10.55;82.03
59487;BME280;45298;54.918;73.504;2023-01-25T00:25:04;101049.34;;;-10.60;82.50
59487;BME280;45298;54.918;73.504;2023-01-25T00:27:33;101024.16;;;-10.71;81.26
59487;BME280;45298;54.918;73.504;2023-01-25T00:30:02;101040.97;;;-10.56;81.67
59487;BME280;45298;54.918;73.504;2023-01-25T00:32:53;100957.72;;;-11.09;82.36
59487;BME280;45298;54.918;73.504;2023-01-25T00:35:29;100998.97;;;-10.81;81.68
59487;BME280;45298;54.918;73.504;2023-01-25T00:38:01;101010.28;;;-10.76;81.74
59487;BME280;45298;54.918;73.504;2023-01-25T00:40:30;101000.66;;;-10.82;81.73
59487;BME280;45298;54.918;73.504;2023-01-25T00:42:59;101026.03;;;-10.67;81.57
59487;BME280;45298;54.918;73.504;2023-01-25T00:45:30;101023.47;;;-10.67;81.97
59487;BME280;45298;54.918;73.504;2023-01-25T00:47:59;101006.22;;;-10.71;82.20
59487;BME280;45298;54.918;73.504;2023-01-25T00:50:28;101019.97;;;-10.69;82.72
59487;BME280;45298;54.918;73.504;2023-01-25T00:52:56;101016.47;;;-10.71;82.21
59487;BME280;45298;54.918;73.504;2023-01-25T00:55:25;101015.06;;;-10.63;81.20
59487;BME280;45298;54.918;73.504;2023-01-25T00:57:54;101019.66;;;-10.55;81.50
59487;BME280;45298;54.918;73.504;2023-01-25T01:00:22;101023.59;;;-10.64;81.89
59487;BME280;45298;54.918;73.504;2023-01-25T01:02:51;101006.28;;;-10.69;81.79
59487;BME280;45298;54.918;73.504;2023-01-25T01:05:20;101032.47;;;-10.55;81.78
59487;BME280;45298;54.918;73.504;2023-01-25T01:07:49;101042.84;;;-10.52;81.78
59487;BME280;45298;54.918;73.504;2023-01-25T01:10:18;101006.22;;;-10.71;82.23
59487;BME280;45298;54.918;73.504;2023-01-25T01:12:46;101015.03;;;-10.64;81.55
59487;BME280;45298;54.918;73.504;2023-01-25T01:15:15;100892.78;;;-11.32;81.37
59487;BME280;45298;54.918;73.504;2023-01-25T01:17:52;100995.06;;;-10.71;81.44
59487;BME280;45298;54.918;73.504;2023-01-25T01:20:21;101042.94;;;-10.49;81.72
59487;BME280;45298;54.918;73.504;2023-01-25T01:22:52;101038.41;;;-10.56;82.51
59487;BME280;45298;54.918;73.504;2023-01-25T01:25:22;101015.84;;;-10.65;82.67
59487;BME280;45298;54.918;73.504;2023-01-25T01:27:51;101023.16;;;-10.53;82.34
59487;BME280;45298;54.918;73.504;2023-01-25T01:30:22;100996.84;;;-10.70;81.35
59487;BME280;45298;54.918;73.504;2023-01-25T01:32:51;100960.22;;;-10.89;81.23
59487;BME280;45298;54.918;73.504;2023-01-25T01:35:20;101010.22;;;-10.56;81.60
59487;BME280;45298;54.918;73.504;2023-01-25T01:37:48;101020.06;;;-10.44;81.97
59487;BME280;45298;54.918;73.504;2023-01-25T01:40:17;101026.28;;;-10.38;82.16
59487;BME280;45298;54.918;73.504;2023-01-25T01:43:16;101029.78;;;-10.36;81.54
59487;BME280;45298;54.918;73.504;2023-01-25T01:48:27;101028.19;;;-10.32;82.24
59487;BME280;45298;54.918;73.504;2023-01-25T01:51:13;101018.72;;;-10.35;82.06
59487;BME280;45298;54.918;73.504;2023-01-25T01:53:53;101026.41;;;-10.35;82.23
59487;BME280;45298;54.918;73.504;2023-01-25T01:56:39;100995.16;;;-10.47;82.46
59487;BME280;45298;54.918;73.504;2023-01-25T01:59:12;100995.28;;;-10.44;81.83
59487;BME280;45298;54.918;73.504;2023-01-25T02:01:42;101013.75;;;-10.30;81.49
59487;BME280;45298;54.918;73.504;2023-01-25T02:04:13;100986.66;;;-10.46;82.62
59487;BME280;45298;54.918;73.504;2023-01-25T02:06:52;100970.97;;;-10.54;82.04
59487;BME280;45298;54.918;73.504;2023-01-25T02:09:24;100999.00;;;-10.36;82.84
59487;BME280;45298;54.918;73.504;2023-01-25T02:11:55;100979.09;;;-10.43;82.68
59487;BME280;45298;54.918;73.504;2023-01-25T02:14:27;100916.00;;;-10.83;82.05
59487;BME280;45298;54.918;73.504;2023-01-25T02:16:59;100993.91;;;-10.34;82.37
59487;BME280;45298;54.918;73.504;2023-01-25T02:19:34;101020.09;;;-10.20;81.91
59487;BME280;45298;54.918;73.504;2023-01-25T02:22:09;101013.34;;;-10.18;81.92
59487;BME280;45298;54.918;73.504;2023-01-25T02:24:48;100986.09;;;-10.37;81.92
59487;BME280;45298;54.918;73.504;2023-01-25T02:27:18;100919.06;;;-10.71;82.93
59487;BME280;45298;54.918;73.504;2023-01-25T02:29:47;101011.75;;;-10.14;82.74
59487;BME280;45298;54.918;73.504;2023-01-25T02:32:16;100922.66;;;-10.66;81.82
59487;BME280;45298;54.918;73.504;2023-01-25T02:34:45;100992.69;;;-10.21;82.03
59487;BME280;45298;54.918;73.504;2023-01-25T02:37:14;100997.94;;;-10.18;82.26
59487;BME280;45298;54.918;73.504;2023-01-25T02:39:43;100985.91;;;-10.21;82.29
59487;BME280;45298;54.918;73.504;2023-01-25T02:42:11;100984.06;;;-10.23;82.83
59487;BME280;45298;54.918;73.504;2023-01-25T02:44:41;100973.09;;;-10.19;82.85
59487;BME280;45298;54.918;73.504;2023-01-25T02:47:10;101004.34;;;-10.07;82.42
59487;BME280;45298;54.918;73.504;2023-01-25T02:49:38;100992.28;;;-10.09;82.02
59487;BME280;45298;54.918;73.504;2023-01-25T02:52:08;101004.53;;;-10.02;82.98
59487;BME280;45298;54.918;73.504;2023-01-25T02:54:36;100957.47;;;-10.25;83.11
59487;BME280;45298;54.918;73.504;2023-01-25T02:57:05;100969.78;;;-10.17;82.81
59487;BME280;45298;54.918;73.504;2023-01-25T02:59:41;100987.31;;;-10.05;82.78
59487;BME280;45298;54.918;73.504;2023-01-25T03:02:12;100990.94;;;-9.99;82.38
59487;BME280;45298;54.918;73.504;2023-01-25T03:04:42;100960.53;;;-10.13;82.90
59487;BME280;45298;54.918;73.504;2023-01-25T03:07:11;100975.38;;;-10.04;82.84
59487;BME280;45298;54.918;73.504;2023-01-25T03:09:40;101007.72;;;-9.85;82.91
59487;BME280;45298;54.918;73.504;2023-01-25T03:12:08;100999.03;;;-9.89;82.49
59487;BME280;45298;54.918;73.504;2023-01-25T03:14:41;100966.78;;;-10.05;83.14
59487;BME280;45298;54.918;73.504;2023-01-25T03:17:11;100995.81;;;-9.83;82.74
59487;BME280;45298;54.918;73.504;2023-01-25T03:19:40;100977.69;;;-9.88;82.72
59487;BME280;45298;54.918;73.504;2023-01-25T03:22:09;100999.69;;;-9.70;82.64
59487;BME280;45298;54.918;73.504;2023-01-25T03:24:38;100958.75;;;-9.91;82.49
59487;BME280;45298;54.918;73.504;2023-01-25T03:27:07;100980.56;;;-9.78;82.43
59487;BME280;45298;54.918;73.504;2023-01-25T03:29:48;100984.13;;;-9.75;82.53
59487;BME280;45298;54.918;73.504;2023-01-25T03:32:21;100987.94;;;-9.63;82.24
59487;BME280;45298;54.918;73.504;2023-01-25T03:34:50;100990.13;;;-9.50;82.14
59487;BME280;45298;54.918;73.504;2023-01-25T03:37:21;100963.16;;;-9.63;82.51
59487;BME280;45298;54.918;73.504;2023-01-25T03:39:50;100968.28;;;-9.63;82.50
59487;BME280;45298;54.918;73.504;2023-01-25T03:42:20;100974.00;;;-9.46;82.06
59487;BME280;45298;54.918;73.504;2023-01-25T03:44:53;100922.63;;;-9.72;82.75
59487;BME280;45298;54.918;73.504;2023-01-25T03:47:22;100885.19;;;-9.89;81.95
59487;BME280;45298;54.918;73.504;2023-01-25T03:49:51;100900.00;;;-9.82;82.12
59487;BME280;45298;54.918;73.504;2023-01-25T03:52:19;100909.97;;;-9.65;82.02
59487;BME280;45298;54.918;73.504;2023-01-25T03:54:48;100965.06;;;-9.31;81.95
59487;BME280;45298;54.918;73.504;2023-01-25T03:57:17;100953.25;;;-9.26;81.75
59487;BME280;45298;54.918;73.504;2023-01-25T03:59:54;100969.75;;;-9.19;81.79
59487;BME280;45298;54.918;73.504;2023-01-25T04:02:24;100943.28;;;-9.17;81.82
59487;BME280;45298;54.918;73.504;2023-01-25T04:04:54;100948.81;;;-9.04;81.81
59487;BME280;45298;54.918;73.504;2023-01-25T04:07:23;100936.91;;;-9.02;81.14
59487;BME280;45298;54.918;73.504;2023-01-25T04:09:52;100920.50;;;-9.06;81.12
59487;BME280;45298;54.918;73.504;2023-01-25T04:12:21;100932.22;;;-8.87;81.25
59487;BME280;45298;54.918;73.504;2023-01-25T04:14:49;100917.53;;;-8.91;81.17
59487;BME280;45298;54.918;73.504;2023-01-25T04:17:21;100853.88;;;-9.27;80.80
59487;BME280;45298;54.918;73.504;2023-01-25T04:20:10;100889.66;;;-9.06;81.01
59487;BME280;45298;54.918;73.504;2023-01-25T04:22:40;100948.13;;;-8.71;80.95
59487;BME280;45298;54.918;73.504;2023-01-25T04:25:09;100868.59;;;-9.21;80.82
59487;BME280;45298;54.918;73.504;2023-01-25T04:27:43;100921.09;;;-8.87;80.97
59487;BME280;45298;54.918;73.504;2023-01-25T04:30:15;100964.59;;;-8.66;80.30
59487;BME280;45298;54.918;73.504;2023-01-25T04:32:45;100946.38;;;-8.72;80.91
59487;BME280;45298;54.918;73.504;2023-01-25T04:35:22;100929.97;;;-8.77;80.66
59487;BME280;45298;54.918;73.504;2023-01-25T04:37:58;100940.38;;;-8.73;80.59
59487;BME280;45298;54.918;73.504;2023-01-25T04:40:36;100938.59;;;-8.75;80.65
59487;BME280;45298;54.918;73.504;2023-01-25T04:43:05;100935.34;;;-8.70;80.58
59487;BME280;45298;54.918;73.504;2023-01-25T04:45:34;100935.38;;;-8.68;80.96
59487;BME280;45298;54.918;73.504;2023-01-25T04:48:10;100963.44;;;-8.47;80.94
59487;BME280;45298;54.918;73.504;2023-01-25T04:50:47;100940.72;;;-8.62;80.52
59487;BME280;45298;54.918;73.504;2023-01-25T04:53:20;100925.16;;;-8.67;79.93
59487;BME280;45298;54.918;73.504;2023-01-25T04:55:49;100938.16;;;-8.62;80.31
59487;BME280;45298;54.918;73.504;2023-01-25T04:58:18;100963.59;;;-8.41;80.30
59487;BME280;45298;54.918;73.504;2023-01-25T05:00:50;100952.56;;;-8.38;80.57
59487;BME280;45298;54.918;73.504;2023-01-25T05:03:19;100931.81;;;-8.43;80.09
59487;BME280;45298;54.918;73.504;2023-01-25T05:05:50;100934.47;;;-8.40;79.66
59487;BME280;45298;54.918;73.504;2023-01-25T05:08:22;100954.75;;;-8.22;79.64
59487;BME280;45298;54.918;73.504;2023-01-25T05:10:53;100865.94;;;-8.68;79.32
59487;BME280;45298;54.918;73.504;2023-01-25T05:13:40;100914.78;;;-8.39;79.17
59487;BME280;45298;54.918;73.504;2023-01-25T05:16:15;100924.78;;;-8.20;79.65
59487;BME280;45298;54.918;73.504;2023-01-25T05:18:44;100943.22;;;-8.04;79.36
59487;BME280;45298;54.918;73.504;2023-01-25T05:21:20;100917.88;;;-8.21;79.04
59487;BME280;45298;54.918;73.504;2023-01-25T05:24:09;100961.44;;;-7.98;79.22
59487;BME280;45298;54.918;73.504;2023-01-25T05:26:38;100860.38;;;-8.53;78.92
59487;BME280;45298;54.918;73.504;2023-01-25T05:29:36;100929.19;;;-8.15;79.65
59487;BME280;45298;54.918;73.504;2023-01-25T05:32:25;100868.81;;;-8.57;79.07
59487;BME280;45298;54.918;73.504;2023-01-25T05:34:53;100928.06;;;-8.25;79.49
59487;BME280;45298;54.918;73.504;2023-01-25T05:37:25;100893.00;;;-8.52;79.00
59487;BME280;45298;54.918;73.504;2023-01-25T05:40:00;100955.66;;;-8.20;79.32
59487;BME280;45298;54.918;73.504;2023-01-25T05:42:32;100941.66;;;-8.29;79.20
59487;BME280;45298;54.918;73.504;2023-01-25T05:45:02;100965.84;;;-8.24;78.63
59487;BME280;45298;54.918;73.504;2023-01-25T05:47:33;100930.44;;;-8.31;78.94
59487;BME280;45298;54.918;73.504;2023-01-25T05:50:02;100966.44;;;-8.02;79.26
59487;BME280;45298;54.918;73.504;2023-01-25T05:52:45;100954.63;;;-7.96;79.03
59487;BME280;45298;54.918;73.504;2023-01-25T05:55:14;100958.56;;;-7.78;79.05
59487;BME280;45298;54.918;73.504;2023-01-25T05:57:43;100942.41;;;-7.71;79.10
59487;BME280;45298;54.918;73.504;2023-01-25T06:00:12;100960.81;;;-7.59;78.04
59487;BME280;45298;54.918;73.504;2023-01-25T06:02:41;100922.50;;;-7.78;78.35
59487;BME280;45298;54.918;73.504;2023-01-25T06:05:15;100958.31;;;-7.55;77.03
59487;BME280;45298;54.918;73.504;2023-01-25T06:07:43;100974.81;;;-7.47;77.22
59487;BME280;45298;54.918;73.504;2023-01-25T06:10:13;100861.09;;;-7.95;77.90
59487;BME280;45298;54.918;73.504;2023-01-25T06:12:43;100944.19;;;-7.36;76.96
59487;BME280;45298;54.918;73.504;2023-01-25T06:15:12;100907.53;;;-7.58;76.58
59487;BME280;45298;54.918;73.504;2023-01-25T06:17:41;100929.34;;;-7.45;76.90
59487;BME280;45298;54.918;73.504;2023-01-25T06:20:29;100952.00;;;-7.33;76.76
59487;BME280;45298;54.918;73.504;2023-01-25T06:23:04;100932.84;;;-7.43;76.34
59487;BME280;45298;54.918;73.504;2023-01-25T06:25:35;100932.94;;;-7.40;76.35
59487;BME280;45298;54.918;73.504;2023-01-25T06:28:04;100930.28;;;-7.41;77.13
59487;BME280;45298;54.918;73.504;2023-01-25T06:30:33;100928.63;;;-7.41;76.55
59487;BME280;45298;54.918;73.504;2023-01-25T06:33:02;100912.88;;;-7.52;75.80
59487;BME280;45298;54.918;73.504;2023-01-25T06:35:31;100933.75;;;-7.41;75.68
59487;BME280;45298;54.918;73.504;2023-01-25T06:38:00;100952.09;;;-7.29;76.15
59487;BME280;45298;54.918;73.504;2023-01-25T06:40:29;100931.94;;;-7.45;75.84
59487;BME280;45298;54.918;73.504;2023-01-25T06:43:08;100922.25;;;-7.55;75.88
59487;BME280;45298;54.918;73.504;2023-01-25T06:45:37;100964.97;;;-7.30;75.98
59487;BME280;45298;54.918;73.504;2023-01-25T06:48:06;100928.41;;;-7.49;75.76
59487;BME280;45298;54.918;73.504;2023-01-25T06:50:34;100915.38;;;-7.55;75.66
59487;BME280;45298;54.918;73.504;2023-01-25T06:53:03;100932.84;;;-7.43;75.29
59487;BME280;45298;54.918;73.504;2023-01-25T06:55:32;100951.06;;;-7.37;76.48
59487;BME280;45298;54.918;73.504;2023-01-25T06:58:01;100919.97;;;-7.43;76.19
59487;BME280;45298;54.918;73.504;2023-01-25T07:00:30;100898.25;;;-7.51;76.58
59487;BME280;45298;54.918;73.504;2023-01-25T07:02:58;100924.59;;;-7.30;75.99
59487;BME280;45298;54.918;73.504;2023-01-25T07:05:28;100904.41;;;-7.46;75.42
59487;BME280;45298;54.918;73.504;2023-01-25T07:07:57;100910.41;;;-7.47;76.15
59487;BME280;45298;54.918;73.504;2023-01-25T07:10:26;100912.88;;;-7.52;76.28
59487;BME280;45298;54.918;73.504;2023-01-25T07:13:00;100901.84;;;-7.46;75.59
59487;BME280;45298;54.918;73.504;2023-01-25T07:15:29;100922.28;;;-7.19;75.76
59487;BME280;45298;54.918;73.504;2023-01-25T07:17:57;100908.41;;;-7.24;75.58
59487;BME280;45298;54.918;73.504;2023-01-25T07:20:42;100916.34;;;-7.16;76.30
59487;BME280;45298;54.918;73.504;2023-01-25T07:23:10;100905.13;;;-7.18;75.21
59487;BME280;45298;54.918;73.504;2023-01-25T07:25:44;100912.28;;;-7.06;75.57
59487;BME280;45298;54.918;73.504;2023-01-25T07:28:14;100926.84;;;-7.08;75.58
59487;BME280;45298;54.918;73.504;2023-01-25T07:30:43;100902.59;;;-7.15;75.17
59487;BME280;45298;54.918;73.504;2023-01-25T07:33:12;100918.56;;;-6.95;75.50
59487;BME280;45298;54.918;73.504;2023-01-25T07:35:40;100875.22;;;-7.10;74.42
59487;BME280;45298;54.918;73.504;2023-01-25T07:38:09;100851.66;;;-7.25;75.36
59487;BME280;45298;54.918;73.504;2023-01-25T07:40:40;100914.56;;;-6.82;74.57
59487;BME280;45298;54.918;73.504;2023-01-25T07:43:08;100885.09;;;-6.92;74.45
59487;BME280;45298;54.918;73.504;2023-01-25T07:45:37;100875.97;;;-7.14;74.51
59487;BME280;45298;54.918;73.504;2023-01-25T07:48:09;100905.06;;;-6.83;73.96
59487;BME280;45298;54.918;73.504;2023-01-25T07:50:38;100903.34;;;-6.83;74.05
59487;BME280;45298;54.918;73.504;2023-01-25T07:53:07;100927.72;;;-6.70;74.45
59487;BME280;45298;54.918;73.504;2023-01-25T07:55:35;100895.66;;;-6.81;73.58
59487;BME280;45298;54.918;73.504;2023-01-25T07:58:04;100909.75;;;-6.65;73.46
59487;BME280;45298;54.918;73.504;2023-01-25T08:00:33;100885.53;;;-6.72;74.33
59487;BME280;45298;54.918;73.504;2023-01-25T08:03:02;100894.25;;;-6.68;74.42
59487;BME280;45298;54.918;73.504;2023-01-25T08:05:30;100913.84;;;-6.75;73.33
59487;BME280;45298;54.918;73.504;2023-01-25T08:07:59;100878.03;;;-7.01;73.47
59487;BME280;45298;54.918;73.504;2023-01-25T08:10:27;100899.84;;;-6.86;73.94
59487;BME280;45298;54.918;73.504;2023-01-25T08:12:56;100897.16;;;-6.91;74.69
59487;BME280;45298;54.918;73.504;2023-01-25T08:15:25;100873.56;;;-7.08;74.00
59487;BME280;45298;54.918;73.504;2023-01-25T08:17:54;100864.81;;;-7.13;73.63
59487;BME280;45298;54.918;73.504;2023-01-25T08:20:22;100862.50;;;-7.02;73.09
59487;BME280;45298;54.918;73.504;2023-01-25T08:22:51;100895.53;;;-6.86;73.09
59487;BME280;45298;54.918;73.504;2023-01-25T08:25:20;100874.72;;;-6.93;73.23
59487;BME280;45298;54.918;73.504;2023-01-25T08:27:48;100878.53;;;-6.77;74.08
59487;BME280;45298;54.918;73.504;2023-01-25T08:30:19;100880.44;;;-6.70;73.12
59487;BME280;45298;54.918;73.504;2023-01-25T08:32:47;100865.53;;;-6.82;73.48
59487;BME280;45298;54.918;73.504;2023-01-25T08:35:16;100878.69;;;-6.71;72.88
59487;BME280;45298;54.918;73.504;2023-01-25T08:37:45;100870.19;;;-6.65;72.65
59487;BME280;45298;54.918;73.504;2023-01-25T08:40:13;100890.06;;;-6.61;72.74
59487;BME280;45298;54.918;73.504;2023-01-25T08:42:42;100858.78;;;-6.77;72.30
59487;BME280;45298;54.918;73.504;2023-01-25T08:45:11;100883.97;;;-6.65;72.59
59487;BME280;45298;54.918;73.504;2023-01-25T08:47:39;100885.69;;;-6.65;72.86
59487;BME280;45298;54.918;73.504;2023-01-25T08:50:08;100898.50;;;-6.69;72.79
59487;BME280;45298;54.918;73.504;2023-01-25T08:52:38;100879.53;;;-6.71;72.21
59487;BME280;45298;54.918;73.504;2023-01-25T08:55:07;100863.16;;;-6.73;72.15
59487;BME280;45298;54.918;73.504;2023-01-25T08:57:35;100884.47;;;-6.42;72.24
59487;BME280;45298;54.918;73.504;2023-01-25T09:00:04;100860.19;;;-6.50;71.72
59487;BME280;45298;54.918;73.504;2023-01-25T09:02:34;100880.97;;;-6.44;71.83
59487;BME280;45298;54.918;73.504;2023-01-25T09:05:03;100905.38;;;-6.29;71.66
59487;BME280;45298;54.918;73.504;2023-01-25T09:07:31;100900.28;;;-6.26;72.00
59487;BME280;45298;54.918;73.504;2023-01-25T09:10:05;100812.00;;;-6.92;71.65
59487;BME280;45298;54.918;73.504;2023-01-25T09:12:37;100878.84;;;-6.63;72.30
59487;BME280;45298;54.918;73.504;2023-01-25T09:15:05;100837.66;;;-6.99;71.54
59487;BME280;45298;54.918;73.504;2023-01-25T09:17:35;100875.97;;;-6.76;71.66
59487;BME280;45298;54.918;73.504;2023-01-25T09:20:06;100889.34;;;-6.54;71.42
59487;BME280;45298;54.918;73.504;2023-01-25T09:22:36;100872.88;;;-6.61;72.47
59487;BME280;45298;54.918;73.504;2023-01-25T09:25:06;100855.69;;;-6.60;72.12
59487;BME280;45298;54.918;73.504;2023-01-25T09:27:35;100791.25;;;-6.99;72.73
59487;BME280;45298;54.918;73.504;2023-01-25T09:30:05;100835.44;;;-6.83;72.08
59487;BME280;45298;54.918;73.504;2023-01-25T09:32:43;100850.97;;;-6.80;71.21
59487;BME280;45298;54.918;73.504;2023-01-25T09:35:12;100842.19;;;-6.88;71.28
59487;BME280;45298;54.918;73.504;2023-01-25T09:37:41;100847.16;;;-6.97;71.67
59487;BME280;45298;54.918;73.504;2023-01-25T09:40:21;100837.09;;;-7.23;71.52
59487;BME280;45298;54.918;73.504;2023-01-25T09:45:32;100856.72;;;-7.30;72.12
59487;BME280;45298;54.918;73.504;2023-01-25T09:48:37;100867.50;;;-7.45;72.02
59487;BME280;45298;54.918;73.504;2023-01-25T09:51:25;100861.00;;;-7.64;71.61
59487;BME280;45298;54.918;73.504;2023-01-25T09:53:57;100783.00;;;-8.27;71.71
59487;BME280;45298;54.918;73.504;2023-01-25T09:56:29;100845.72;;;-7.92;72.08
59487;BME280;45298;54.918;73.504;2023-01-25T09:59:04;100831.72;;;-8.01;71.96
59487;BME280;45298;54.918;73.504;2023-01-25T10:04:38;100838.31;;;-8.11;71.79
59487;BME280;45298;54.918;73.504;2023-01-25T10:07:24;100887.91;;;-7.86;72.59
59487;BME280;45298;54.918;73.504;2023-01-25T10:10:59;100880.19;;;-7.86;72.80
59487;BME280;45298;54.918;73.504;2023-01-25T10:13:22;100858.47;;;-7.96;72.85
59487;BME280;45298;54.918;73.504;2023-01-25T10:21:40;100839.16;;;-8.12;73.13
59487;BME280;45298;54.918;73.504;2023-01-25T10:27:09;100845.47;;;-8.01;73.22
59487;BME280;45298;54.918;73.504;2023-01-25T10:29:41;100855.81;;;-7.99;72.61
59487;BME280;45298;54.918;73.504;2023-01-25T10:32:25;100851.38;;;-8.05;73.42
59487;BME280;45298;54.918;73.504;2023-01-25T10:34:57;100860.94;;;-8.01;73.30
59487;BME280;45298;54.918;73.504;2023-01-25T10:37:31;100866.78;;;-8.07;73.50
59487;BME280;45298;54.918;73.504;2023-01-25T10:42:38;100879.97;;;-7.96;73.42
59487;BME280;45298;54.918;73.504;2023-01-25T10:45:15;100894.34;;;-8.02;73.58
59487;BME280;45298;54.918;73.504;2023-01-25T10:47:50;100893.41;;;-8.06;73.23
59487;BME280;45298;54.918;73.504;2023-01-25T10:53:36;100869.84;;;-8.20;73.64
59487;BME280;45298;54.918;73.504;2023-01-25T10:58:42;100852.94;;;-8.42;73.97
59487;BME280;45298;54.918;73.504;2023-01-25T11:01:31;100818.59;;;-8.75;74.39
59487;BME280;45298;54.918;73.504;2023-01-25T11:04:01;100819.19;;;-8.84;74.25
59487;BME280;45298;54.918;73.504;2023-01-25T11:06:46;100817.19;;;-8.94;74.71
59487;BME280;45298;54.918;73.504;2023-01-25T11:12:00;100878.53;;;-8.77;74.95
59487;BME280;45298;54.918;73.504;2023-01-25T11:14:31;100839.84;;;-9.09;74.62
59487;BME280;45298;54.918;73.504;2023-01-25T11:17:03;100870.06;;;-9.02;74.55
59487;BME280;45298;54.918;73.504;2023-01-25T11:19:39;100834.88;;;-9.32;75.21
59487;BME280;45298;54.918;73.504;2023-01-25T11:22:23;100892.72;;;-9.18;74.45
59487;BME280;45298;54.918;73.504;2023-01-25T11:24:51;100888.88;;;-9.31;75.28
59487;BME280;45298;54.918;73.504;2023-01-25T11:27:22;100909.47;;;-9.29;75.32
59487;BME280;45298;54.918;73.504;2023-01-25T11:30:07;100911.75;;;-9.38;75.33
59487;BME280;45298;54.918;73.504;2023-01-25T11:32:38;100876.50;;;-9.68;75.19
59487;BME280;45298;54.918;73.504;2023-01-25T11:35:30;100895.63;;;-9.60;76.17
59487;BME280;45298;54.918;73.504;2023-01-25T11:38:11;100909.38;;;-9.58;75.90
59487;BME280;45298;54.918;73.504;2023-01-25T11:55:43;100771.66;;;-10.82;76.09
59487;BME280;45298;54.918;73.504;2023-01-25T12:01:16;100889.09;;;-10.00;76.85
59487;BME280;45298;54.918;73.504;2023-01-25T12:13:01;100814.94;;;-10.67;77.23
59487;BME280;45298;54.918;73.504;2023-01-25T12:18:37;100878.00;;;-10.48;76.80
59487;BME280;45298;54.918;73.504;2023-01-25T12:21:49;100899.00;;;-10.34;77.38
59487;BME280;45298;54.918;73.504;2023-01-25T12:27:24;100907.47;;;-10.37;76.79
59487;BME280;45298;54.918;73.504;2023-01-25T12:30:03;100897.00;;;-10.43;77.52
59487;BME280;45298;54.918;73.504;2023-01-25T12:32:57;100856.13;;;-10.63;77.46
59487;BME280;45298;54.918;73.504;2023-01-25T12:36:12;100903.13;;;-10.39;78.39
59487;BME280;45298;54.918;73.504;2023-01-25T12:41:40;100908.22;;;-10.41;78.19
59487;BME280;45298;54.918;73.504;2023-01-25T12:44:24;100896.69;;;-10.52;77.29
59487;BME280;45298;54.918;73.504;2023-01-25T12:50:30;100909.84;;;-10.43;77.82
59487;BME280;45298;54.918;73.504;2023-01-25T12:53:22;100909.72;;;-10.46;77.66
59487;BME280;45298;54.918;73.504;2023-01-25T12:55:52;100903.56;;;-10.51;77.65
59487;BME280;45298;54.918;73.504;2023-01-25T13:07:12;100889.09;;;-10.49;77.53
59487;BME280;45298;54.918;73.504;2023-01-25T13:09:57;100906.41;;;-10.43;77.56
59487;BME280;45298;54.918;73.504;2023-01-25T13:12:27;100906.47;;;-10.42;78.66
59487;BME280;45298;54.918;73.504;2023-01-25T13:14:56;100894.44;;;-10.43;77.62
59487;BME280;45298;54.918;73.504;2023-01-25T13:17:31;100881.41;;;-10.49;78.10
59487;BME280;45298;54.918;73.504;2023-01-25T13:23:37;100903.66;;;-10.48;78.23
59487;BME280;45298;54.918;73.504;2023-01-25T13:28:56;100883.34;;;-10.66;78.71
59487;BME280;45298;54.918;73.504;2023-01-25T13:37:41;100930.63;;;-10.58;78.08
59487;BME280;45298;54.918;73.504;2023-01-25T13:41:10;100939.91;;;-10.61;78.05
59487;BME280;45298;54.918;73.504;2023-01-25T13:43:40;100917.72;;;-10.84;77.64
59487;BME280;45298;54.918;73.504;2023-01-25T13:46:13;100927.19;;;-10.81;78.37
59487;BME280;45298;54.918;73.504;2023-01-25T13:48:54;100897.22;;;-11.05;78.63
59487;BME280;45298;54.918;73.504;2023-01-25T13:51:26;100917.97;;;-10.99;78.83
59487;BME280;45298;54.918;73.504;2023-01-25T13:53:58;100919.84;;;-10.95;78.27
59487;BME280;45298;54.918;73.504;2023-01-25T13:56:32;100943.22;;;-10.87;78.01
59487;BME280;45298;54.918;73.504;2023-01-25T13:59:01;100934.25;;;-10.98;77.51
59487;BME280;45298;54.918;73.504;2023-01-25T14:01:31;100958.34;;;-10.93;77.90
59487;BME280;45298;54.918;73.504;2023-01-25T14:04:03;100973.22;;;-10.84;78.35
59487;BME280;45298;54.918;73.504;2023-01-25T14:06:36;100889.94;;;-11.38;78.25
59487;BME280;45298;54.918;73.504;2023-01-25T14:09:16;100946.03;;;-11.02;78.88
59487;BME280;45298;54.918;73.504;2023-01-25T14:11:54;100945.59;;;-11.13;78.06
59487;BME280;45298;54.918;73.504;2023-01-25T14:14:29;100935.84;;;-11.21;78.59
59487;BME280;45298;54.918;73.504;2023-01-25T14:17:19;100954.09;;;-11.14;78.18
59487;BME280;45298;54.918;73.504;2023-01-25T14:19:53;100952.94;;;-11.22;78.05
59487;BME280;45298;54.918;73.504;2023-01-25T14:22:24;100908.81;;;-11.36;78.79
59487;BME280;45298;54.918;73.504;2023-01-25T14:27:40;100966.31;;;-11.08;78.55
59487;BME280;45298;54.918;73.504;2023-01-25T14:30:19;100956.72;;;-11.12;78.30
59487;BME280;45298;54.918;73.504;2023-01-25T14:32:54;100918.94;;;-11.39;77.92
59487;BME280;45298;54.918;73.504;2023-01-25T14:41:29;100950.28;;;-11.24;78.66